Time;durP1;ratioP1;P1;durP2;ratioP2;P2;SDS_P1;SDS_P2;PMS_P1;PMS_P2;Temp;Humidity;BMP_temperature;BMP_pressure;BME280_temperature;BME280_humidity;BME280_pressure;Samples;Min_cycle;Max_cycle;Signal;HPM_P1;HPM_P2
2022/04/01 16:55:31;;;;;;;6.32;3.08;;;4.40;99.90;;;;;;4986705;28;20025;-70
2022/04/01 16:58:00;;;;;;;4.18;2.88;;;;;;;;;;4932175;29;20066;-87
2022/04/01 17:00:28;;;;;;;6.00;2.80;;;;;;;;;;4972862;28;20051;-88
2022/04/01 17:02:55;;;;;;;6.63;2.58;;;;;;;;;;4940184;29;20059;-87
2022/04/01 17:05:24;;;;;;;4.60;2.88;;;;;;;;;;4956537;29;20526;-88
2022/04/01 17:13:29;;;;;;;5.05;2.50;;;;;;;;;;4955846;29;20111;-87
2022/04/01 17:15:58;;;;;;;5.32;2.70;;;;;;;;;;4955917;29;20062;-87
2022/04/01 17:18:27;;;;;;;5.05;2.80;;;;;;;;;;4940300;29;20059;-86
2022/04/01 17:21:05;;;;;;;4.18;2.85;;;;;;;;;;4956908;29;20051;-86
2022/04/01 17:23:31;;;;;;;5.97;2.80;;;;;;;;;;4964668;29;20035;-87
2022/04/01 17:25:59;;;;;;;6.20;2.70;;;;;;;;;;4964459;29;20050;-86
2022/04/01 17:28:25;;;;;;;4.78;2.63;;;;;;;;;;4962780;29;20051;-86
2022/04/01 17:30:54;;;;;;;8.70;3.03;;;;;;;;;;4961640;29;20054;-87
2022/04/01 17:33:30;;;;;;;8.70;2.67;;;;;;;;;;4962259;29;20071;-87
2022/04/01 17:36:05;;;;;;;5.30;2.65;;;;;;;;;;4974517;29;20048;-87
2022/04/01 17:38:34;;;;;;;9.93;2.83;;;4.10;99.90;;;;;;4960628;29;20051;-86
2022/04/01 17:41:08;;;;;;;9.02;2.80;;;;;;;;;;4942543;29;20499;-87
2022/04/01 17:43:34;;;;;;;4.38;2.78;;;;;;;;;;4960197;29;20071;-87
2022/04/01 17:46:03;;;;;;;6.90;2.97;;;;;;;;;;4960163;29;20051;-87
2022/04/01 17:48:35;;;;;;;6.22;2.90;;;;;;;;;;4927085;29;20088;-88
2022/04/01 17:51:03;;;;;;;5.13;2.60;;;4.10;99.90;;;;;;4942848;29;20522;-87
2022/04/01 17:53:41;;;;;;;5.57;2.90;;;;;;;;;;4959294;29;20055;-88
2022/04/01 17:56:11;;;;;;;4.32;2.70;;;;;;;;;;4958557;29;20047;-88
2022/04/01 17:58:49;;;;;;;4.78;2.70;;;;;;;;;;4925457;29;20051;-89
2022/04/01 18:01:15;;;;;;;5.45;2.85;;;;;;;;;;4924978;29;20429;-88
2022/04/01 18:03:47;;;;;;;8.32;2.75;;;4.00;99.90;;;;;;4942125;29;20087;-87
2022/04/01 18:06:14;;;;;;;5.43;3.05;;;;;;;;;;4923498;29;20143;-88
2022/04/01 18:09:13;;;;;;;7.65;2.78;;;4.00;99.90;;;;;;4944262;29;20044;-87
2022/04/01 18:11:39;;;;;;;4.53;2.67;;;;;;;;;;4911335;29;20066;-88
2022/04/01 18:14:11;;;;;;;8.15;3.17;;;;;;;;;;4945455;29;20115;-87
2022/04/01 18:16:41;;;;;;;6.10;2.92;;;;;;;;;;4912467;29;20063;-88
2022/04/01 18:19:07;;;;;;;6.78;3.28;;;;;;;;;;4926668;29;20056;-88
2022/04/01 18:21:41;;;;;;;5.07;2.90;;;;;;;;;;4939626;29;20044;-83
2022/04/01 18:24:14;;;;;;;8.23;2.92;;;;;;;;;;4907175;29;20373;-87
2022/04/01 18:26:50;;;;;;;7.50;3.03;;;;;;;;;;4939265;29;20048;-87
2022/04/01 18:29:39;;;;;;;5.65;2.80;;;3.80;99.90;;;;;;4939480;29;20051;-87
2022/04/01 18:32:21;;;;;;;6.10;2.97;;;3.80;99.90;;;;;;4937898;29;20108;-86
2022/04/01 18:34:59;;;;;;;5.72;2.85;;;;;;;;;;4890691;29;20086;-87
2022/04/01 18:37:32;;;;;;;4.80;3.08;;;;;;;;;;4906676;29;20055;-87
2022/04/01 18:40:03;;;;;;;6.60;3.28;;;;;;;;;;4938193;29;20145;-86
2022/04/01 18:42:31;;;;;;;9.18;2.80;;;;;;;;;;4905993;29;20135;-87
2022/04/01 18:44:59;;;;;;;4.38;2.63;;;;;;;;;;4904568;29;20056;-87
2022/04/01 18:47:30;;;;;;;4.82;2.88;;;;;;;;;;4939302;29;20504;-86
2022/04/01 18:50:10;;;;;;;5.28;2.85;;;;;;;;;;4938458;29;20136;-86
2022/04/01 18:52:41;;;;;;;8.00;3.00;;;3.70;99.90;;;;;;4937577;29;20056;-87
2022/04/01 18:55:07;;;;;;;4.80;2.90;;;;;;;;;;4939013;29;20091;-87
2022/04/01 18:57:33;;;;;;;5.13;2.95;;;;;;;;;;4921839;29;20499;-86
2022/04/01 19:00:00;;;;;;;5.20;3.10;;;;;;;;;;4931757;29;20059;-88
2022/04/01 19:02:34;;;;;;;4.25;3.00;;;;;;;;;;4915544;29;20052;-87
2022/04/01 19:05:03;;;;;;;3.78;2.75;;;;;;;;;;4940753;29;20051;-87
2022/04/01 19:07:45;;;;;;;4.30;2.50;;;3.70;99.90;;;;;;4940220;29;20051;-86
2022/04/01 19:10:12;;;;;;;4.55;3.00;;;3.70;99.90;;;;;;4941684;29;20514;-85
2022/04/01 19:12:39;;;;;;;8.32;3.00;;;;;;;;;;4941916;29;20145;-86
2022/04/01 19:15:08;;;;;;;6.55;3.00;;;;;;;;;;4924230;29;20054;-87
2022/04/01 19:17:43;;;;;;;10.07;3.20;;;3.60;99.90;;;;;;4936996;29;20063;-87
2022/04/01 19:20:11;;;;;;;4.85;2.65;;;;;;;;;;4920935;29;20235;-87
2022/04/01 19:22:44;;;;;;;5.75;3.08;;;3.60;99.90;;;;;;4910711;29;20058;-86
2022/04/01 19:25:11;;;;;;;7.68;3.13;;;;;;;;;;4923907;29;20051;-87
2022/04/01 19:27:47;;;;;;;7.28;3.10;;;;;;;;;;4922378;29;20051;-87
2022/04/01 19:30:25;;;;;;;5.47;3.00;;;;;;;;;;4921315;29;20067;-87
2022/04/01 19:32:54;;;;;;;5.72;2.85;;;;;;;;;;4938578;29;20051;-86
2022/04/01 19:35:22;;;;;;;4.72;2.85;;;;;;;;;;4906209;29;20055;-87
2022/04/01 19:37:55;;;;;;;5.63;3.05;;;;;;;;;;4922899;29;20426;-86
2022/04/01 19:40:23;;;;;;;5.07;2.85;;;;;;;;;;4906297;29;20109;-87
2022/04/01 19:42:50;;;;;;;6.10;2.88;;;;;;;;;;4921377;29;20574;-86
2022/04/01 19:45:21;;;;;;;6.13;2.80;;;;;;;;;;4905204;29;20062;-86
2022/04/01 19:47:48;;;;;;;4.00;2.80;;;;;;;;;;4921960;29;20055;-87
2022/04/01 19:50:15;;;;;;;4.90;2.90;;;;;;;;;;4921106;29;20070;-86
2022/04/01 19:52:41;;;;;;;5.72;2.97;;;;;;;;;;4937750;29;20078;-87
2022/04/01 19:55:27;;;;;;;5.93;3.00;;;3.60;99.30;;;;;;4939268;29;20052;-87
2022/04/01 19:58:05;;;;;;;4.85;2.95;;;;;;;;;;4965837;28;20506;-87
2022/04/01 20:00:43;;;;;;;4.78;2.80;;;;;;;;;;4958366;29;20457;-87
2022/04/01 20:03:11;;;;;;;4.70;2.92;;;;;;;;;;4955389;29;20050;-87
2022/04/01 20:05:40;;;;;;;7.10;2.95;;;;;;;;;;4968667;28;20075;-87
2022/04/01 20:08:09;;;;;;;5.50;2.80;;;;;;;;;;4956913;29;20497;-87
2022/04/01 20:10:38;;;;;;;4.18;2.63;;;;;;;;;;4938853;29;20494;-86
2022/04/01 20:13:05;;;;;;;7.18;3.20;;;;;;;;;;4956444;29;20054;-87
2022/04/01 20:15:32;;;;;;;5.00;2.92;;;;;;;;;;4955657;29;20055;-87
2022/04/01 20:18:01;;;;;;;7.10;2.83;;;;;;;;;;4938378;29;20111;-87
2022/04/01 20:20:39;;;;;;;4.28;2.92;;;;;;;;;;4955725;29;20051;-87
2022/04/01 20:23:14;;;;;;;4.82;3.05;;;;;;;;;;4955221;28;20126;-85
2022/04/01 20:25:41;;;;;;;5.05;3.10;;;;;;;;;;4956933;29;20047;-87
2022/04/01 20:28:10;;;;;;;4.93;2.95;;;;;;;;;;4956174;29;20451;-87
2022/04/01 20:30:39;;;;;;;5.18;2.95;;;;;;;;;;4941157;29;20062;-87
2022/04/01 20:33:05;;;;;;;5.80;3.08;;;;;;;;;;4957571;29;20158;-88
2022/04/01 20:35:33;;;;;;;5.60;2.80;;;;;;;;;;4959356;29;20502;-87
2022/04/01 20:37:59;;;;;;;4.70;2.80;;;;;;;;;;4942001;29;20059;-87
2022/04/01 20:40:26;;;;;;;4.72;2.83;;;;;;;;;;4958334;29;20063;-86
2022/04/01 20:42:52;;;;;;;5.10;2.97;;;;;;;;;;4941640;29;20047;-87
2022/04/01 20:45:19;;;;;;;5.15;3.13;;;;;;;;;;4956571;29;20089;-87
2022/04/01 20:47:45;;;;;;;7.05;2.92;;;;;;;;;;4958011;29;20059;-87
2022/04/01 20:50:12;;;;;;;7.07;3.15;;;;;;;;;;4959999;29;20519;-87
2022/04/01 20:52:38;;;;;;;5.22;3.00;;;;;;;;;;4959406;29;20059;-87
2022/04/01 20:55:07;;;;;;;5.25;2.88;;;;;;;;;;4961057;28;20047;-88
2022/04/01 20:57:37;;;;;;;5.57;2.88;;;;;;;;;;4959177;28;20057;-87
2022/04/01 21:00:10;;;;;;;4.43;2.90;;;;;;;;;;4959865;29;20391;-88
2022/04/01 21:02:39;;;;;;;10.45;3.10;;;3.20;99.90;;;;;;4958640;29;20059;-87
2022/04/01 21:05:17;;;;;;;6.07;3.10;;;;;;;;;;4959349;29;20087;-88
2022/04/01 21:07:43;;;;;;;4.68;2.95;;;;;;;;;;4959866;29;20087;-88
2022/04/01 21:10:09;;;;;;;7.22;3.20;;;;;;;;;;4955682;29;20130;-87
2022/04/01 21:12:40;;;;;;;5.78;2.92;;;3.10;99.70;;;;;;4939765;29;20567;-88
2022/04/01 21:15:09;;;;;;;5.88;3.20;;;;;;;;;;4957002;29;20107;-87
2022/04/01 21:17:36;;;;;;;6.78;3.00;;;;;;;;;;4956931;28;20119;-88
2022/04/01 21:20:03;;;;;;;6.63;2.95;;;;;;;;;;4939887;29;20051;-88
2022/04/01 21:22:30;;;;;;;5.47;3.40;;;;;;;;;;4955510;29;20083;-87
2022/04/01 21:24:57;;;;;;;4.70;3.15;;;;;;;;;;4956600;29;20063;-88
2022/04/01 21:27:23;;;;;;;5.57;3.45;;;;;;;;;;4956724;29;20056;-87
2022/04/01 21:29:54;;;;;;;7.85;3.35;;;3.00;99.90;;;;;;4956904;29;20043;-87
2022/04/01 21:32:20;;;;;;;5.00;3.03;;;3.00;99.90;;;;;;4954688;28;20134;-88
2022/04/01 21:34:50;;;;;;;6.38;3.28;;;;;;;;;;4955479;29;20051;-88
2022/04/01 21:37:25;;;;;;;4.85;3.00;;;;;;;;;;4957096;29;20178;-88
2022/04/01 21:39:52;;;;;;;8.52;3.30;;;2.90;99.90;;;;;;4940818;29;20051;-87
2022/04/01 21:42:18;;;;;;;5.03;3.10;;;;;;;;;;4955332;29;20199;-87
2022/04/01 21:44:46;;;;;;;6.93;2.80;;;;;;;;;;4954809;29;20051;-87
2022/04/01 21:47:13;;;;;;;5.03;3.05;;;;;;;;;;4956688;29;20066;-87
2022/04/01 21:49:43;;;;;;;7.25;3.10;;;;;;;;;;4955914;29;20462;-88
2022/04/01 21:52:10;;;;;;;5.70;3.05;;;;;;;;;;4954637;29;20130;-88
2022/04/01 21:54:36;;;;;;;3.85;2.78;;;;;;;;;;4956380;28;20044;-88
2022/04/01 21:57:02;;;;;;;6.15;3.13;;;;;;;;;;4941810;29;20213;-87
2022/04/01 21:59:55;;;;;;;5.72;3.15;;;;;;;;;;4962384;29;20051;-88
2022/04/01 22:02:22;;;;;;;5.88;3.28;;;;;;;;;;4945685;29;20074;-86
2022/04/01 22:04:51;;;;;;;6.13;2.90;;;;;;;;;;4959169;28;20067;-88
2022/04/01 22:07:18;;;;;;;4.47;2.90;;;;;;;;;;4961844;28;20055;-88
2022/04/01 22:09:50;;;;;;;5.63;3.20;;;;;;;;;;4962698;29;20051;-87
2022/04/01 22:12:22;;;;;;;5.57;3.40;;;;;;;;;;4958909;29;20478;-87
2022/04/01 22:14:51;;;;;;;6.18;2.97;;;;;;;;;;4959433;29;20059;-87
2022/04/01 22:17:17;;;;;;;8.00;3.22;;;;;;;;;;4960806;28;20047;-87
2022/04/01 22:19:47;;;;;;;4.63;3.15;;;;;;;;;;4959337;28;20070;-88
2022/04/01 22:22:13;;;;;;;5.30;3.13;;;;;;;;;;4959583;28;20051;-88
2022/04/01 22:24:42;;;;;;;4.88;3.30;;;;;;;;;;4942242;29;20062;-88
2022/04/01 22:27:08;;;;;;;7.38;3.45;;;;;;;;;;4942438;29;20066;-88
2022/04/01 22:29:34;;;;;;;4.25;2.85;;;;;;;;;;4958724;29;20066;-88
2022/04/01 22:32:02;;;;;;;7.50;3.15;;;;;;;;;;4958354;29;20051;-88
2022/04/01 22:34:28;;;;;;;5.15;3.38;;;;;;;;;;4958352;28;20395;-88
2022/04/01 22:36:55;;;;;;;5.18;3.10;;;;;;;;;;4958790;29;20482;-87
2022/04/01 22:39:21;;;;;;;8.30;3.30;;;;;;;;;;4957924;29;20111;-88
2022/04/01 22:41:47;;;;;;;4.85;3.15;;;;;;;;;;4958697;29;20055;-87
2022/04/01 22:44:13;;;;;;;5.70;3.15;;;;;;;;;;4957599;28;20054;-88
2022/04/01 22:46:44;;;;;;;5.68;3.40;;;;;;;;;;4959225;28;20058;-88
2022/04/01 22:49:11;;;;;;;5.38;3.00;;;;;;;;;;4958498;29;20402;-87
2022/04/01 22:54:22;;;;;;;5.80;3.35;;;;;;;;;;4958936;29;20054;-88
2022/04/01 22:56:48;;;;;;;6.57;3.10;;;;;;;;;;4941250;29;20063;-88
2022/04/01 22:59:15;;;;;;;8.85;3.33;;;;;;;;;;4958130;29;20066;-88
2022/04/01 23:01:42;;;;;;;5.45;3.03;;;;;;;;;;4959287;28;20047;-88
2022/04/01 23:04:08;;;;;;;6.50;3.22;;;;;;;;;;4958069;29;20063;-87
2022/04/01 23:06:34;;;;;;;5.05;3.30;;;;;;;;;;4958113;29;20055;-87
2022/04/01 23:09:00;;;;;;;8.90;3.30;;;;;;;;;;4941482;29;20059;-88
2022/04/01 23:11:29;;;;;;;5.45;3.30;;;;;;;;;;4958187;29;20115;-87
2022/04/01 23:13:55;;;;;;;5.57;2.95;;;;;;;;;;4958570;28;20059;-88
2022/04/01 23:16:24;;;;;;;5.80;3.55;;;;;;;;;;4941324;29;20130;-87
2022/04/01 23:18:59;;;;;;;5.78;3.28;;;;;;;;;;4958588;28;20067;-87
2022/04/01 23:21:28;;;;;;;6.35;3.42;;;;;;;;;;4957110;29;20055;-88
2022/04/01 23:23:54;;;;;;;6.43;3.35;;;;;;;;;;4958151;28;20518;-88
2022/04/01 23:26:20;;;;;;;5.97;3.10;;;;;;;;;;4958421;29;20051;-88
2022/04/01 23:28:49;;;;;;;6.10;3.53;;;;;;;;;;4957978;29;20467;-88
2022/04/01 23:31:15;;;;;;;6.97;3.47;;;;;;;;;;4956874;28;20055;-87
2022/04/01 23:33:41;;;;;;;10.13;3.72;;;;;;;;;;4957800;29;20546;-88
2022/04/01 23:36:08;;;;;;;4.80;3.22;;;;;;;;;;4957967;28;20055;-88
2022/04/01 23:38:34;;;;;;;5.05;3.30;;;;;;;;;;4956278;29;20055;-87
2022/04/01 23:41:03;;;;;;;9.93;3.40;;;;;;;;;;4957900;29;20121;-87
2022/04/01 23:43:30;;;;;;;6.80;3.63;;;;;;;;;;4940248;29;20086;-87
2022/04/01 23:45:59;;;;;;;5.57;3.25;;;;;;;;;;4957898;29;20118;-87
2022/04/01 23:48:29;;;;;;;6.90;3.40;;;;;;;;;;4957816;29;20051;-87
2022/04/01 23:50:56;;;;;;;4.70;3.22;;;;;;;;;;4957224;29;20105;-87
2022/04/01 23:53:22;;;;;;;7.30;3.45;;;;;;;;;;4957606;29;20431;-88
2022/04/01 23:55:48;;;;;;;5.15;3.40;;;;;;;;;;4957516;29;20062;-88
2022/04/01 23:58:14;;;;;;;5.45;3.30;;;;;;;;;;4976708;28;20055;-88
